Main page
METAR-TAF:

METAR-TAF

Airports :

Paderborn Lippstadt Airport

Paderborn-Lippstadt, Germany

latitude: 51-37N, longitude: 008-37E, elevation: 213 m

Current weather observation

The report was made 15 minutes ago, at 03:50 UTC
Wind 10 kt from the South
Temperature 4°C
Humidity 70%
Pressure 1031 hPa
Visibility 10 km or more
no clouds below 1500 m and no cumulonimbus

METAR: EDLP 200350Z 18010KT CAVOK 04/M01 Q1031

Time: 05:05 (04:05 UTC)

Forecast

The report was made 5 hours and 5 minutes ago, at 23:00 UTC
Forecast valid from 20 at 00 UTC to 20 at 24 UTC
Wind 8 kt from the South
Visibility 10 km or more
Few clouds at a height of 4000 ft
Becoming
from 20 at 07 UTC to 20 at 10 UTC
Wind 7 kt from the West/Southwest
Becoming
from 20 at 17 UTC to 20 at 20 UTC
Wind 6 kt from the South

TAF: EDLP 192300Z 2000/2024 19008KT 9999 FEW040 BECMG 2007/2010 25007KT BECMG 2017/2020 19006KT

Weather observations and forecasts of more than 4000 airports (METAR and TAF reports).

The available stations are represented by yellow and red dots on the map.

Hover mouse over dot to see the name of the station.

Then click to see weather observations and forecasts.

To change the map : click on the green buttons with a black cross to zoom in, on the green button with a dash to zoom out, or on the green arrows for adjacent maps.


METAR-TAF: